Time;durP1;ratioP1;P1;durP2;ratioP2;P2;SDS_P1;SDS_P2;PMS_P1;PMS_P2;Temp;Humidity;BMP_temperature;BMP_pressure;BME280_temperature;BME280_humidity;BME280_pressure;Samples;Min_cycle;Max_cycle;Signal;HPM_P1;HPM_P2
2022/02/11 00:08:52;;;;;;;10.10;6.57;;;4.70;82.20;;;;;;5049790;28;20412;-74
2022/02/11 00:11:21;;;;;;;13.93;7.60;;;4.50;83.20;;;;;;5044858;28;20399;-73
2022/02/11 00:13:47;;;;;;;13.80;7.65;;;4.50;83.90;;;;;;5043655;28;20407;-72
2022/02/11 00:16:13;;;;;;;10.97;7.30;;;4.40;85.40;;;;;;5050552;28;20418;-74
2022/02/11 00:18:38;;;;;;;11.60;7.93;;;4.50;85.50;;;;;;5050043;28;20747;-74
2022/02/11 00:21:04;;;;;;;16.10;9.10;;;4.60;86.70;;;;;;5051613;28;20393;-74
2022/02/11 00:23:31;;;;;;;13.73;8.67;;;4.60;85.30;;;;;;5045093;28;20389;-74
2022/02/11 00:26:02;;;;;;;13.15;9.07;;;4.40;86.20;;;;;;5048670;28;20400;-74
2022/02/11 00:33:34;;;;;;;15.70;8.18;;;4.20;88.30;;;;;;5047892;28;20436;-73
2022/02/11 00:36:05;;;;;;;17.02;9.23;;;4.10;89.90;;;;;;5047374;28;20484;-73
2022/02/11 01:02:44;;;;;;;14.35;7.70;;;3.80;94.40;;;;;;5049289;28;20507;-73
2022/02/11 01:05:09;;;;;;;12.60;7.10;;;3.80;94.60;;;;;;5052237;28;20557;-74
2022/02/11 01:07:35;;;;;;;11.23;7.00;;;3.70;97.10;;;;;;5051518;28;20758;-73
2022/02/11 01:10:00;;;;;;;10.55;7.80;;;3.80;96.70;;;;;;5051966;28;20786;-74
2022/02/11 01:12:28;;;;;;;12.83;7.80;;;3.80;96.70;;;;;;5052597;28;20412;-74
2022/02/11 01:14:54;;;;;;;15.82;8.52;;;3.80;97.00;;;;;;5046076;28;20408;-74
2022/02/11 01:17:32;;;;;;;12.23;7.70;;;3.80;96.00;;;;;;5054175;28;20445;-74
2022/02/11 01:25:21;;;;;;;14.53;8.03;;;3.90;95.30;;;;;;5058588;28;20390;-73
2022/02/11 01:35:56;;;;;;;20.70;10.60;;;3.60;98.60;;;;;;5043726;28;20449;-74
2022/02/11 01:38:35;;;;;;;16.50;9.90;;;3.60;99.90;;;;;;5051092;28;20381;-74
2022/02/11 01:44:05;;;;;;;18.30;10.70;;;3.50;99.90;;;;;;5051162;28;20481;-72
2022/02/11 01:54:19;;;;;;;17.80;10.25;;;3.60;99.30;;;;;;5051147;28;20386;-73
2022/02/11 01:57:15;;;;;;;17.75;10.32;;;3.60;99.20;;;;;;5050348;28;20441;-75
2022/02/11 02:00:23;;;;;;;20.08;10.55;;;3.60;99.90;;;;;;5050697;28;20885;-74
2022/02/11 02:13:41;;;;;;;17.17;10.82;;;3.50;99.90;;;;;;5050793;28;20388;-74
2022/02/11 02:27:33;;;;;;;17.58;11.13;;;3.30;99.90;;;;;;5030728;28;20460;-75
2022/02/11 02:30:17;;;;;;;20.15;11.35;;;3.40;99.90;;;;;;5023181;28;20482;-73
2022/02/11 02:50:12;;;;;;;17.85;10.82;;;3.40;99.90;;;;;;5030279;28;20851;-73
2022/02/11 02:57:20;;;;;;;16.80;10.50;;;3.40;97.50;;;;;;5030338;28;20907;-74
2022/02/11 03:35:09;;;;;;;25.87;12.30;;;3.50;92.00;;;;;;5048556;28;20896;-73
2022/02/11 03:49:14;;;;;;;23.88;12.00;;;3.80;88.80;;;;;;5033420;28;20422;-74
2022/02/11 04:55:29;;;;;;;20.47;8.63;;;4.60;79.70;;;;;;5052971;28;20417;-72
2022/02/11 05:00:39;;;;;;;20.52;8.60;;;4.60;77.60;;;;;;5058511;28;20439;-71
2022/02/11 05:03:06;;;;;;;17.83;8.38;;;4.70;77.50;;;;;;5063640;28;20388;-73
2022/02/11 05:05:50;;;;;;;19.30;8.93;;;4.70;77.00;;;;;;5085758;28;20372;-72
2022/02/11 05:08:20;;;;;;;19.73;8.65;;;4.70;76.50;;;;;;5079941;28;20455;-71
2022/02/11 05:10:46;;;;;;;21.95;9.05;;;4.80;76.00;;;;;;5052089;28;20399;-72
2022/02/11 05:13:13;;;;;;;20.52;8.70;;;4.80;75.50;;;;;;5036663;28;20395;-71
2022/02/11 05:15:39;;;;;;;18.33;8.53;;;4.90;75.70;;;;;;5035104;28;20403;-72
2022/02/11 05:18:05;;;;;;;17.52;8.05;;;4.90;76.30;;;;;;5037095;28;20458;-73
2022/02/11 05:20:31;;;;;;;20.52;8.80;;;4.90;75.50;;;;;;5042112;28;20392;-73
2022/02/11 05:22:57;;;;;;;19.20;9.20;;;4.90;75.30;;;;;;5058577;28;20386;-73
2022/02/11 05:25:23;;;;;;;14.88;7.65;;;4.90;76.40;;;;;;5055871;28;20901;-73
2022/02/11 05:27:48;;;;;;;20.00;7.97;;;4.90;74.40;;;;;;5055059;28;20483;-73
2022/02/11 05:30:14;;;;;;;19.07;8.90;;;4.90;74.30;;;;;;5055483;28;20385;-72
2022/02/11 05:32:40;;;;;;;20.17;8.07;;;4.80;75.30;;;;;;5052800;28;20480;-72
2022/02/11 05:35:06;;;;;;;25.55;8.90;;;4.80;75.50;;;;;;5054826;28;20869;-72
2022/02/11 05:37:32;;;;;;;19.83;8.60;;;4.90;76.20;;;;;;5054892;28;20831;-72
2022/02/11 05:39:57;;;;;;;25.05;8.43;;;5.00;75.70;;;;;;5037665;28;20396;-72
2022/02/11 05:42:23;;;;;;;20.17;8.25;;;5.00;74.80;;;;;;5051970;28;20460;-72
2022/02/11 05:44:49;;;;;;;21.80;8.00;;;5.00;75.40;;;;;;5059736;28;20727;-72
2022/02/11 05:47:15;;;;;;;20.08;8.18;;;5.00;74.80;;;;;;5053349;28;20778;-73
2022/02/11 05:49:41;;;;;;;21.03;8.70;;;5.00;75.10;;;;;;5056860;28;20377;-73
2022/02/11 05:52:07;;;;;;;29.48;7.93;;;5.00;75.10;;;;;;5061156;28;20797;-72
2022/02/11 05:54:32;;;;;;;16.92;7.35;;;5.10;71.80;;;;;;5058930;28;20969;-73
2022/02/11 05:56:58;;;;;;;22.67;7.70;;;5.10;72.40;;;;;;5061087;28;20413;-72
2022/02/11 05:59:23;;;;;;;18.67;7.17;;;5.10;71.10;;;;;;5056564;28;20396;-73
2022/02/11 06:01:49;;;;;;;21.13;7.93;;;5.20;70.60;;;;;;5056857;28;20389;-72
2022/02/11 06:04:15;;;;;;;19.63;7.53;;;5.10;70.60;;;;;;5057958;28;20465;-72
2022/02/11 06:06:40;;;;;;;26.73;7.90;;;5.10;72.30;;;;;;5057600;28;20499;-73
2022/02/11 06:09:06;;;;;;;19.53;8.20;;;5.10;72.10;;;;;;5056133;28;20427;-72
2022/02/11 06:11:32;;;;;;;18.93;6.90;;;5.10;72.90;;;;;;5053917;28;20395;-72
2022/02/11 06:13:58;;;;;;;21.70;7.37;;;5.10;72.70;;;;;;5058513;28;20389;-72
2022/02/11 06:16:23;;;;;;;18.02;6.70;;;5.20;72.20;;;;;;5055868;28;20435;-72
2022/02/11 06:18:49;;;;;;;15.00;7.00;;;5.20;71.30;;;;;;5058906;28;20473;-71
2022/02/11 06:21:15;;;;;;;15.82;7.00;;;5.20;72.20;;;;;;5055940;28;20393;-72
2022/02/11 06:23:41;;;;;;;24.52;6.93;;;5.20;73.20;;;;;;5059234;28;20401;-72
2022/02/11 06:26:06;;;;;;;19.37;6.60;;;5.20;74.00;;;;;;5063516;28;20404;-72
2022/02/11 06:28:32;;;;;;;18.50;6.78;;;5.30;71.40;;;;;;5057505;28;20398;-73
2022/02/11 06:30:58;;;;;;;19.10;6.78;;;5.30;71.30;;;;;;5049408;28;20402;-72
2022/02/11 06:33:23;;;;;;;18.47;5.53;;;5.30;71.90;;;;;;5050887;28;20392;-72
2022/02/11 06:35:49;;;;;;;19.77;6.60;;;5.40;70.70;;;;;;5050071;28;20836;-73
2022/02/11 06:38:14;;;;;;;16.70;6.30;;;5.40;70.20;;;;;;5051102;28;20381;-72
2022/02/11 06:40:40;;;;;;;18.33;5.57;;;5.40;69.60;;;;;;5055705;28;20403;-72
2022/02/11 06:43:06;;;;;;;26.52;6.40;;;5.40;69.50;;;;;;5052149;28;20392;-73
2022/02/11 06:45:32;;;;;;;19.20;5.73;;;5.40;70.20;;;;;;5053348;28;20482;-72
2022/02/11 06:47:58;;;;;;;28.77;6.10;;;5.40;69.70;;;;;;5051460;28;20468;-73
2022/02/11 06:50:23;;;;;;;22.40;6.00;;;5.40;69.20;;;;;;5047483;28;20426;-73
2022/02/11 06:52:49;;;;;;;18.50;5.83;;;5.40;68.90;;;;;;5054128;28;20867;-73
2022/02/11 06:55:15;;;;;;;20.73;5.68;;;5.40;68.60;;;;;;5055363;28;20494;-72
2022/02/11 06:57:42;;;;;;;21.83;5.20;;;5.40;69.40;;;;;;5053891;28;20920;-72
2022/02/11 07:00:12;;;;;;;15.45;5.13;;;5.40;69.90;;;;;;5055294;28;20799;-72
2022/02/11 07:02:38;;;;;;;21.65;6.03;;;5.50;69.60;;;;;;5056889;28;20391;-72
2022/02/11 07:05:04;;;;;;;12.20;4.93;;;5.50;69.70;;;;;;5058840;28;20398;-72
2022/02/11 07:07:30;;;;;;;19.98;4.75;;;5.50;68.70;;;;;;5058753;28;20695;-72
2022/02/11 07:09:56;;;;;;;22.30;5.17;;;5.60;69.20;;;;;;5056923;28;20384;-72
2022/02/11 07:12:21;;;;;;;19.70;5.20;;;5.60;70.20;;;;;;5056656;28;20396;-72
2022/02/11 07:14:47;;;;;;;18.77;4.93;;;5.60;68.80;;;;;;5056681;28;20377;-73
2022/02/11 07:17:12;;;;;;;15.25;4.45;;;5.60;68.60;;;;;;5069016;28;20405;-72
2022/02/11 07:19:38;;;;;;;21.40;4.57;;;5.70;67.90;;;;;;5067716;28;20401;-73
2022/02/11 07:22:04;;;;;;;19.65;4.63;;;5.70;66.80;;;;;;5061899;28;20390;-72
2022/02/11 07:24:30;;;;;;;14.90;4.35;;;5.70;65.90;;;;;;5055704;28;20898;-72
2022/02/11 07:26:56;;;;;;;11.40;4.17;;;5.70;66.30;;;;;;5052853;28;20479;-73
2022/02/11 07:29:22;;;;;;;15.18;4.68;;;5.80;65.90;;;;;;5053866;28;20390;-74
2022/02/11 07:31:48;;;;;;;23.00;4.60;;;5.80;65.90;;;;;;5053629;28;20402;-73
2022/02/11 07:34:13;;;;;;;16.47;3.90;;;5.80;64.10;;;;;;5053393;28;20401;-72
2022/02/11 07:36:39;;;;;;;16.10;4.20;;;5.80;62.70;;;;;;5055809;28;20406;-73
2022/02/11 07:39:07;;;;;;;21.23;4.43;;;5.80;63.40;;;;;;5054855;28;20469;-73
2022/02/11 07:41:33;;;;;;;16.02;4.22;;;5.80;63.20;;;;;;5053780;28;20390;-72
2022/02/11 07:43:59;;;;;;;26.45;4.70;;;5.90;63.90;;;;;;5053987;28;20443;-72
2022/02/11 07:46:24;;;;;;;15.50;4.10;;;5.90;63.70;;;;;;5054282;28;20400;-73
2022/02/11 07:48:50;;;;;;;14.27;3.83;;;5.90;63.30;;;;;;5052400;28;20474;-72
2022/02/11 07:51:16;;;;;;;14.47;4.03;;;5.80;63.20;;;;;;5053592;28;20430;-72
2022/02/11 07:53:42;;;;;;;16.95;4.35;;;5.70;66.20;;;;;;5053929;28;20385;-72
2022/02/11 07:56:08;;;;;;;19.55;4.15;;;5.70;65.60;;;;;;5054630;28;20409;-72
2022/02/11 07:58:34;;;;;;;20.60;4.28;;;5.80;62.30;;;;;;5055003;28;20386;-73
2022/02/11 08:01:00;;;;;;;19.05;3.60;;;5.90;62.00;;;;;;5055167;28;20405;-72
2022/02/11 08:03:27;;;;;;;17.90;3.20;;;6.00;58.10;;;;;;5058288;28;20896;-72
2022/02/11 08:05:53;;;;;;;7.72;2.10;;;5.80;56.40;;;;;;5076376;28;20388;-71
2022/02/11 08:08:20;;;;;;;8.40;2.20;;;5.80;55.00;;;;;;5073673;28;20379;-73
2022/02/11 08:10:46;;;;;;;9.32;1.42;;;5.70;55.60;;;;;;5074426;28;20870;-72
2022/02/11 08:13:12;;;;;;;8.38;2.13;;;5.60;53.00;;;;;;5073075;28;20387;-72
2022/02/11 08:15:37;;;;;;;26.60;3.20;;;5.50;56.60;;;;;;5068516;28;20499;-73
2022/02/11 08:18:03;;;;;;;11.63;2.10;;;5.40;56.70;;;;;;5046878;28;20393;-72
2022/02/11 08:20:28;;;;;;;10.70;2.00;;;5.50;56.10;;;;;;5053283;28;20464;-73
2022/02/11 08:22:54;;;;;;;18.57;3.10;;;5.60;55.90;;;;;;5052020;28;20390;-73
2022/02/11 08:25:20;;;;;;;6.27;2.10;;;5.60;56.00;;;;;;5051878;28;20463;-72
2022/02/11 08:27:47;;;;;;;11.30;2.17;;;5.70;56.10;;;;;;5053324;28;20447;-73
2022/02/11 08:30:14;;;;;;;15.05;3.38;;;5.70;55.20;;;;;;5053465;28;20746;-72
2022/02/11 08:32:41;;;;;;;15.88;2.67;;;5.80;56.10;;;;;;5036339;28;20901;-73
2022/02/11 08:35:07;;;;;;;14.35;2.35;;;6.00;54.30;;;;;;5034443;28;20384;-73
2022/02/11 08:37:32;;;;;;;12.75;2.95;;;6.10;51.90;;;;;;5035859;28;20727;-73
2022/02/11 08:39:58;;;;;;;15.60;4.03;;;6.10;53.00;;;;;;5048276;28;20387;-73
2022/02/11 08:42:24;;;;;;;9.73;2.23;;;6.10;53.40;;;;;;5049040;28;20536;-73
2022/02/11 08:44:49;;;;;;;17.85;3.30;;;6.10;51.80;;;;;;5053915;28;20414;-74
2022/02/11 08:47:15;;;;;;;12.23;2.22;;;6.00;51.90;;;;;;5035411;28;20451;-74
2022/02/11 08:49:41;;;;;;;12.87;2.93;;;5.90;51.50;;;;;;5033594;28;20728;-72
2022/02/11 08:52:07;;;;;;;23.05;4.40;;;5.80;50.30;;;;;;5032496;28;20387;-73
2022/02/11 08:54:33;;;;;;;12.52;2.83;;;5.80;52.90;;;;;;5032795;28;20421;-72
2022/02/11 08:56:58;;;;;;;16.73;4.13;;;6.00;52.10;;;;;;5032730;28;20970;-72
2022/02/11 08:59:24;;;;;;;10.63;2.90;;;6.00;51.90;;;;;;5031825;28;20913;-73
2022/02/11 09:01:50;;;;;;;15.13;3.10;;;6.20;50.10;;;;;;5052132;28;20386;-74
2022/02/11 09:04:16;;;;;;;15.80;3.43;;;6.10;48.10;;;;;;5052664;28;20460;-73
2022/02/11 09:06:43;;;;;;;18.80;3.25;;;6.10;49.00;;;;;;5052844;28;20386;-73
2022/02/11 09:09:09;;;;;;;17.17;3.38;;;6.20;49.00;;;;;;5054278;28;20424;-74
2022/02/11 09:11:35;;;;;;;29.40;3.30;;;6.30;46.60;;;;;;5054103;28;20738;-72
2022/02/11 09:14:01;;;;;;;10.38;3.00;;;6.30;44.80;;;;;;5051696;28;20408;-73
2022/02/11 09:16:27;;;;;;;17.10;3.90;;;6.20;46.50;;;;;;5043396;28;20919;-73
2022/02/11 09:18:52;;;;;;;15.90;3.20;;;6.30;43.70;;;;;;5037731;28;20440;-73
2022/02/11 09:21:18;;;;;;;13.68;3.20;;;6.40;43.00;;;;;;5046479;28;20377;-73
2022/02/11 09:23:44;;;;;;;18.23;2.50;;;6.40;43.60;;;;;;5054108;28;20397;-74
2022/02/11 09:26:10;;;;;;;10.98;2.20;;;6.70;42.10;;;;;;5051110;28;20481;-73
2022/02/11 09:28:36;;;;;;;15.55;2.35;;;6.40;42.20;;;;;;5062161;28;20396;-72
2022/02/11 09:31:03;;;;;;;16.10;3.72;;;6.50;43.40;;;;;;5056816;28;20883;-73
2022/02/11 09:33:29;;;;;;;17.55;2.95;;;6.50;43.20;;;;;;5044875;28;20398;-72
2022/02/11 09:35:55;;;;;;;12.20;2.50;;;6.50;42.10;;;;;;5031050;28;20421;-72
2022/02/11 09:38:22;;;;;;;15.07;3.20;;;6.50;39.90;;;;;;5030977;28;20760;-72
2022/02/11 09:40:53;;;;;;;15.05;2.85;;;6.50;40.40;;;;;;5033431;28;20391;-72
2022/02/11 09:43:22;;;;;;;14.77;3.50;;;6.80;39.00;;;;;;5050906;28;20790;-72
2022/02/11 09:45:47;;;;;;;15.65;3.30;;;7.00;38.40;;;;;;5051202;28;20469;-74
2022/02/11 09:48:13;;;;;;;13.65;2.85;;;6.90;38.80;;;;;;5049311;28;20437;-75
2022/02/11 09:50:39;;;;;;;14.40;2.70;;;6.80;36.60;;;;;;5051890;28;20389;-74
2022/02/11 09:53:05;;;;;;;22.83;3.50;;;6.60;37.20;;;;;;5053151;28;20391;-74
2022/02/11 09:55:33;;;;;;;17.83;3.30;;;6.60;38.80;;;;;;5051332;28;20496;-75
2022/02/11 09:58:09;;;;;;;10.80;2.80;;;6.60;37.40;;;;;;5052549;28;20393;-75
2022/02/11 10:00:39;;;;;;;25.60;2.40;;;6.60;36.20;;;;;;5051833;28;20394;-75
2022/02/11 10:03:17;;;;;;;19.98;2.88;;;6.80;35.70;;;;;;5057260;28;20736;-75
2022/02/11 10:05:45;;;;;;;7.47;2.30;;;6.90;35.20;;;;;;5081327;28;20391;-74
2022/02/11 10:08:11;;;;;;;18.85;2.95;;;6.90;36.00;;;;;;5076219;28;20399;-73
2022/02/11 10:10:42;;;;;;;12.17;3.70;;;6.90;33.90;;;;;;5074293;28;20741;-72
2022/02/11 10:13:14;;;;;;;20.52;3.03;;;6.60;34.30;;;;;;5073202;28;20383;-73
2022/02/11 10:15:43;;;;;;;13.50;3.20;;;6.70;35.90;;;;;;5060635;28;20916;-74
2022/02/11 10:18:11;;;;;;;15.60;2.67;;;6.70;34.90;;;;;;5052141;28;20404;-74
2022/02/11 10:20:51;;;;;;;14.03;2.47;;;6.70;35.20;;;;;;5054149;28;20452;-75
2022/02/11 10:23:23;;;;;;;18.52;2.95;;;6.50;33.90;;;;;;5052620;28;20377;-74
2022/02/11 10:26:02;;;;;;;15.35;2.67;;;6.50;34.10;;;;;;5058184;28;20399;-73
2022/02/11 10:28:36;;;;;;;21.83;3.08;;;6.50;35.20;;;;;;5062042;28;20390;-73
2022/02/11 10:31:20;;;;;;;14.68;2.88;;;6.60;34.00;;;;;;5044220;28;20442;-73
2022/02/11 10:34:00;;;;;;;11.87;3.00;;;6.70;34.70;;;;;;5058387;28;20790;-74
2022/02/11 10:36:29;;;;;;;13.98;2.70;;;6.60;31.20;;;;;;5050158;28;20768;-74
2022/02/11 10:39:03;;;;;;;;;;;6.50;31.30;;;;;;5056927;28;20048;-73
2022/02/11 10:41:29;;;;;;;;;;;6.50;29.80;;;;;;5057223;28;20007;-72
2022/02/11 10:43:58;;;;;;;;;;;6.70;30.70;;;;;;5049358;28;20325;-73
2022/02/11 10:46:24;;;;;;;10.73;2.37;;;6.80;29.20;;;;;;5056812;28;20577;-73
2022/02/11 10:48:50;;;;;;;18.05;3.30;;;6.80;27.50;;;;;;5052504;28;20410;-73
2022/02/11 10:51:23;;;;;;;18.85;3.65;;;6.90;28.70;;;;;;5049908;28;20457;-72
2022/02/11 10:53:49;;;;;;;17.38;2.88;;;6.80;27.40;;;;;;5046906;28;20397;-72
2022/02/11 10:56:18;;;;;;;10.63;2.55;;;6.90;26.50;;;;;;5051611;28;20502;-75
2022/02/11 10:59:04;;;;;;;15.93;2.05;;;6.90;27.10;;;;;;5042460;28;20738;-73
2022/02/11 11:01:30;;;;;;;14.50;2.15;;;6.90;26.80;;;;;;5049191;28;20484;-74
2022/02/11 11:03:57;;;;;;;17.40;2.90;;;7.00;27.90;;;;;;5046122;28;20389;-73
2022/02/11 11:06:25;;;;;;;15.57;3.10;;;7.00;26.80;;;;;;5044263;28;20473;-73
2022/02/11 11:08:53;;;;;;;14.05;2.80;;;6.90;26.20;;;;;;5051315;28;20405;-72
2022/02/11 11:11:21;;;;;;;6.13;1.73;;;6.80;27.90;;;;;;5045550;28;20469;-73
2022/02/11 11:13:48;;;;;;;9.80;1.75;;;6.70;27.20;;;;;;5051563;28;20971;-73
2022/02/11 11:16:16;;;;;;;14.45;3.30;;;6.80;28.50;;;;;;5048940;28;20892;-74
2022/02/11 11:18:43;;;;;;;13.37;2.10;;;6.90;26.00;;;;;;5050259;28;20977;-74
2022/02/11 11:21:10;;;;;;;11.32;2.10;;;6.80;26.30;;;;;;5056031;28;20464;-75
2022/02/11 11:23:44;;;;;;;9.13;2.30;;;6.90;25.90;;;;;;5046072;28;20406;-75
2022/02/11 11:26:10;;;;;;;15.70;2.22;;;7.10;25.10;;;;;;5058889;28;20404;-74
2022/02/11 11:28:49;;;;;;;20.60;2.85;;;7.10;23.70;;;;;;5046624;28;20403;-73
2022/02/11 11:31:27;;;;;;;9.48;2.03;;;7.20;23.60;;;;;;5050395;28;20397;-74
2022/02/11 11:34:15;;;;;;;11.45;2.55;;;7.30;22.60;;;;;;5048517;28;20924;-73
2022/02/11 11:36:49;;;;;;;15.20;3.43;;;7.50;23.30;;;;;;5045879;28;20769;-73
2022/02/11 11:39:15;;;;;;;11.38;2.40;;;7.40;21.70;;;;;;5048691;28;20455;-74
2022/02/11 11:41:41;;;;;;;7.82;2.13;;;7.60;22.00;;;;;;5058450;28;20964;-76
2022/02/11 11:44:15;;;;;;;11.10;2.28;;;7.30;21.00;;;;;;5050584;28;20405;-74
2022/02/11 11:47:09;;;;;;;10.55;2.40;;;7.20;21.60;;;;;;5050423;28;20427;-73
2022/02/11 11:49:46;;;;;;;9.57;2.60;;;7.30;21.90;;;;;;5046281;28;20433;-73
2022/02/11 11:52:13;;;;;;;11.52;2.47;;;7.20;22.10;;;;;;5053027;28;20487;-74
2022/02/11 11:54:39;;;;;;;12.00;2.10;;;7.30;22.50;;;;;;5048897;28;20398;-72
2022/02/11 11:57:16;;;;;;;9.90;2.27;;;7.60;21.00;;;;;;5047140;28;20405;-73
2022/02/11 11:59:49;;;;;;;10.65;1.90;;;7.60;19.80;;;;;;5050151;28;20406;-73
2022/02/11 12:02:25;;;;;;;13.25;2.10;;;7.70;20.90;;;;;;5042262;28;20880;-71
2022/02/11 12:04:54;;;;;;;4.55;1.88;;;7.60;20.40;;;;;;5045815;28;20421;-72
2022/02/11 12:07:29;;;;;;;6.55;1.88;;;7.50;20.70;;;;;;5048001;28;20422;-74
2022/02/11 12:09:57;;;;;;;8.75;2.40;;;7.70;21.60;;;;;;5047550;28;20843;-72
2022/02/11 12:12:25;;;;;;;8.07;1.85;;;7.50;20.00;;;;;;5047781;28;20512;-73
2022/02/11 12:14:55;;;;;;;10.80;2.08;;;7.60;20.80;;;;;;5045554;28;20453;-73
2022/02/11 12:17:22;;;;;;;9.85;2.50;;;7.80;19.60;;;;;;5047607;28;20496;-73
2022/02/11 12:19:49;;;;;;;12.80;1.73;;;8.00;19.10;;;;;;5041094;28;20403;-73
2022/02/11 12:22:16;;;;;;;10.07;3.10;;;7.90;18.90;;;;;;5046604;28;20215;-73
2022/02/11 12:27:49;;;;;;;8.93;1.75;;;7.70;18.70;;;;;;5051842;28;20198;-72
2022/02/11 12:30:24;;;;;;;18.45;2.42;;;7.70;19.30;;;;;;5050715;28;20579;-75
2022/02/11 12:32:57;;;;;;;14.77;1.83;;;7.60;19.10;;;;;;5054410;28;20222;-74
2022/02/11 12:35:24;;;;;;;9.77;1.48;;;7.50;19.30;;;;;;5051654;28;20168;-73
2022/02/11 12:37:51;;;;;;;7.28;1.48;;;7.60;19.60;;;;;;5046039;28;20182;-73
2022/02/11 12:40:22;;;;;;;5.43;1.55;;;7.80;17.60;;;;;;5059952;28;20265;-73
2022/02/11 12:42:50;;;;;;;7.35;1.73;;;7.70;17.00;;;;;;5047285;28;20210;-73
2022/02/11 12:45:29;;;;;;;7.05;1.60;;;7.70;16.10;;;;;;5049865;28;20179;-73
2022/02/11 12:47:55;;;;;;;9.75;2.10;;;7.70;15.40;;;;;;5047770;28;20189;-73
2022/02/11 12:50:31;;;;;;;3.03;1.67;;;7.50;15.00;;;;;;5049332;28;20184;-74
2022/02/11 12:52:58;;;;;;;15.48;1.70;;;7.50;15.50;;;;;;5051584;28;20195;-73
2022/02/11 12:55:24;;;;;;;9.27;1.73;;;7.60;16.50;;;;;;5042139;28;20172;-73
2022/02/11 12:57:57;;;;;;;4.87;0.93;;;7.40;15.70;;;;;;5049972;28;20186;-74
2022/02/11 13:00:28;;;;;;;4.47;1.20;;;7.50;16.30;;;;;;5041576;28;20441;-74
2022/02/11 13:02:58;;;;;;;2.72;1.50;;;7.60;16.30;;;;;;5053690;28;20570;-73
2022/02/11 13:05:26;;;;;;;1.13;0.80;;;7.70;16.10;;;;;;5041047;28;20251;-73
2022/02/11 13:07:57;;;;;;;6.25;1.20;;;7.60;14.70;;;;;;5049021;28;20182;-74
2022/02/11 13:10:27;;;;;;;2.55;0.82;;;7.70;14.90;;;;;;5048092;28;20261;-74
2022/02/11 13:12:54;;;;;;;2.65;1.27;;;7.80;15.00;;;;;;5049522;28;20241;-74
2022/02/11 13:15:27;;;;;;;5.32;1.05;;;7.80;15.10;;;;;;5041400;28;20222;-74
2022/02/11 13:17:54;;;;;;;7.70;1.95;;;7.80;15.30;;;;;;5048390;28;20232;-74
2022/02/11 13:20:27;;;;;;;2.40;1.70;;;7.80;15.30;;;;;;5051754;28;20171;-73
2022/02/11 13:22:53;;;;;;;9.60;1.20;;;7.70;14.10;;;;;;5043047;28;20225;-73
2022/02/11 13:25:19;;;;;;;13.45;2.15;;;7.50;14.10;;;;;;5047934;28;20644;-74
2022/02/11 13:27:48;;;;;;;6.67;1.00;;;7.70;14.50;;;;;;5047816;28;20188;-74
2022/02/11 13:30:21;;;;;;;8.27;1.52;;;7.80;12.90;;;;;;5042761;28;20425;-75
2022/02/11 13:32:47;;;;;;;10.32;2.17;;;7.90;13.30;;;;;;5052174;28;20242;-74
2022/02/11 13:35:13;;;;;;;12.57;1.67;;;8.00;14.10;;;;;;5049070;28;20186;-74
2022/02/11 13:37:39;;;;;;;1.67;0.80;;;7.90;12.90;;;;;;5053316;28;20171;-75
2022/02/11 13:40:22;;;;;;;7.95;1.58;;;7.90;14.00;;;;;;5069265;28;22530;-74
2022/02/11 13:42:56;;;;;;;0.82;0.75;;;8.00;13.90;;;;;;5069080;28;20197;-75
2022/02/11 13:45:22;;;;;;;5.97;1.35;;;8.00;13.60;;;;;;5073996;28;20178;-74
2022/02/11 13:48:07;;;;;;;5.13;1.25;;;7.80;14.10;;;;;;5073495;28;20265;-75
2022/02/11 13:51:03;;;;;;;9.57;1.95;;;7.90;15.00;;;;;;5072330;28;20636;-74
2022/02/11 13:53:40;;;;;;;2.55;0.90;;;7.80;14.20;;;;;;5072886;28;20639;-74
2022/02/11 13:56:12;;;;;;;2.05;1.13;;;8.10;14.00;;;;;;5072346;28;20299;-75
2022/02/11 13:58:40;;;;;;;17.35;1.67;;;8.20;14.30;;;;;;5073576;28;20178;-73
2022/02/11 14:01:25;;;;;;;7.13;1.45;;;8.40;14.30;;;;;;5072167;28;20170;-74
2022/02/11 14:03:51;;;;;;;4.53;1.23;;;8.30;13.80;;;;;;5073552;28;20214;-75
2022/02/11 14:06:18;;;;;;;13.17;1.50;;;8.00;14.30;;;;;;5077102;28;20573;-74
2022/02/11 14:08:46;;;;;;;2.35;1.70;;;8.00;15.00;;;;;;5077220;28;20926;-75
2022/02/11 14:11:19;;;;;;;2.58;1.50;;;8.00;13.80;;;;;;5071302;28;20305;-74
2022/02/11 14:13:46;;;;;;;2.33;1.60;;;7.90;13.80;;;;;;5071778;28;20582;-75
2022/02/11 14:16:12;;;;;;;6.53;1.63;;;7.90;14.60;;;;;;5071267;28;20244;-74
2022/02/11 14:18:44;;;;;;;2.00;0.90;;;7.90;14.70;;;;;;5071928;28;20531;-75
2022/02/11 14:21:18;;;;;;;2.75;0.82;;;7.90;15.00;;;;;;5072177;28;20174;-74
2022/02/11 14:23:44;;;;;;;7.25;1.40;;;8.10;14.40;;;;;;5065816;28;20174;-74
2022/02/11 14:26:09;;;;;;;2.70;1.23;;;8.40;14.30;;;;;;5071703;28;20190;-75
2022/02/11 14:28:35;;;;;;;2.90;1.60;;;8.30;13.60;;;;;;5069016;28;20765;-74
2022/02/11 14:31:05;;;;;;;8.05;1.50;;;8.00;14.20;;;;;;5071366;28;20466;-73
2022/02/11 14:33:30;;;;;;;10.93;1.85;;;8.00;14.10;;;;;;5070840;28;20430;-73
2022/02/11 14:35:56;;;;;;;8.73;1.50;;;8.10;14.50;;;;;;5070645;28;20442;-74
2022/02/11 14:38:22;;;;;;;9.83;2.07;;;8.10;14.10;;;;;;5058857;28;20390;-74
2022/02/11 14:43:32;;;;;;;6.43;1.88;;;8.00;14.20;;;;;;5071069;28;20471;-74
2022/02/11 14:45:58;;;;;;;3.13;1.43;;;7.90;14.30;;;;;;5071596;28;20840;-74
2022/02/11 14:48:24;;;;;;;5.82;1.63;;;7.80;13.50;;;;;;5071123;28;20475;-73
2022/02/11 14:50:49;;;;;;;7.47;1.70;;;7.80;13.60;;;;;;5070288;28;20401;-74
2022/02/11 14:53:15;;;;;;;8.80;2.03;;;7.90;12.50;;;;;;5064967;28;20396;-74
2022/02/11 14:55:41;;;;;;;5.33;1.70;;;8.40;13.00;;;;;;5070172;28;20921;-74
2022/02/11 14:58:06;;;;;;;7.10;1.50;;;8.90;12.00;;;;;;5070954;28;21065;-73
2022/02/11 15:00:32;;;;;;;4.37;1.50;;;8.90;11.60;;;;;;5079409;28;20431;-75
2022/02/11 15:02:58;;;;;;;4.90;1.70;;;8.90;10.90;;;;;;5080399;28;20441;-74
2022/02/11 15:05:23;;;;;;;8.32;1.80;;;9.20;11.10;;;;;;5068543;28;20391;-74
2022/02/11 15:07:49;;;;;;;7.15;1.80;;;9.10;10.30;;;;;;5050032;28;20390;-74
2022/02/11 15:10:15;;;;;;;7.68;2.35;;;9.10;10.80;;;;;;5049978;28;20421;-73
2022/02/11 15:12:41;;;;;;;17.00;2.83;;;9.10;14.80;;;;;;5049995;28;20950;-74
2022/02/11 15:15:08;;;;;;;15.68;3.75;;;8.90;17.20;;;;;;5054250;28;20420;-74
2022/02/11 15:17:33;;;;;;;12.13;2.78;;;8.90;17.60;;;;;;5055070;28;20413;-73
2022/02/11 15:19:59;;;;;;;12.30;3.33;;;9.10;16.80;;;;;;5059095;28;20399;-73
2022/02/11 15:22:25;;;;;;;18.10;2.60;;;8.70;17.80;;;;;;5069602;28;20406;-74
2022/02/11 15:24:50;;;;;;;14.40;3.10;;;8.30;18.60;;;;;;5073730;28;20395;-74
2022/02/11 15:27:17;;;;;;;19.45;3.40;;;8.20;19.10;;;;;;5079581;28;20451;-75
2022/02/11 15:29:43;;;;;;;12.63;2.53;;;8.10;18.70;;;;;;5078191;28;20472;-74
2022/02/11 15:32:12;;;;;;;8.55;2.33;;;7.90;18.80;;;;;;5079866;28;20419;-74
2022/02/11 15:34:38;;;;;;;15.27;3.05;;;7.80;19.10;;;;;;5078135;28;20396;-72
2022/02/11 15:37:05;;;;;;;9.15;2.65;;;7.50;19.30;;;;;;5083163;28;20411;-73
2022/02/11 15:39:30;;;;;;;20.52;3.30;;;7.50;19.10;;;;;;5076069;28;20379;-74
2022/02/11 15:41:56;;;;;;;9.27;2.13;;;7.40;19.20;;;;;;5075454;28;20376;-74
2022/02/11 15:44:21;;;;;;;14.23;3.17;;;7.30;18.10;;;;;;5073864;28;20462;-73
2022/02/11 15:46:47;;;;;;;7.63;2.05;;;7.20;18.00;;;;;;5073635;28;20380;-73
2022/02/11 15:49:13;;;;;;;9.18;2.40;;;7.10;17.30;;;;;;5067063;28;20406;-73
2022/02/11 15:51:38;;;;;;;7.90;1.90;;;7.10;17.00;;;;;;5073152;28;20436;-73
2022/02/11 15:54:04;;;;;;;7.37;1.73;;;7.10;15.90;;;;;;5073505;28;20482;-75
2022/02/11 15:56:31;;;;;;;11.68;1.98;;;7.00;16.30;;;;;;5071656;28;20943;-75
2022/02/11 15:58:56;;;;;;;6.87;1.70;;;6.90;16.30;;;;;;5069113;28;20525;-74
2022/02/11 16:01:22;;;;;;;8.73;2.50;;;6.80;16.40;;;;;;5063410;28;20489;-73
2022/02/11 16:03:47;;;;;;;13.77;2.20;;;6.80;16.70;;;;;;5070253;28;20399;-76
2022/02/11 16:06:13;;;;;;;11.95;2.70;;;6.80;16.70;;;;;;5074333;28;20394;-74
2022/02/11 16:08:39;;;;;;;8.52;2.00;;;6.80;16.40;;;;;;5069370;28;20403;-74
2022/02/11 16:11:05;;;;;;;9.40;1.87;;;6.80;16.40;;;;;;5064839;28;20400;-74
2022/02/11 16:13:30;;;;;;;7.82;2.30;;;6.80;16.60;;;;;;5060336;28;20511;-75
2022/02/11 16:15:56;;;;;;;11.55;2.00;;;6.80;17.90;;;;;;5063685;28;20404;-74
2022/02/11 16:18:24;;;;;;;10.20;2.50;;;6.80;16.80;;;;;;5067583;28;20399;-75
2022/02/11 16:20:52;;;;;;;8.73;2.17;;;6.90;17.20;;;;;;5069192;28;20388;-74
2022/02/11 16:23:20;;;;;;;11.23;2.73;;;6.90;16.90;;;;;;5064204;28;21005;-75
2022/02/11 16:25:46;;;;;;;8.55;2.38;;;6.80;16.80;;;;;;5062873;28;20488;-75
2022/02/11 16:28:14;;;;;;;13.88;3.15;;;6.80;16.80;;;;;;5064975;28;20408;-74
2022/02/11 16:30:40;;;;;;;12.38;2.80;;;6.80;17.10;;;;;;5061373;28;20416;-74
2022/02/11 16:33:07;;;;;;;6.20;2.13;;;6.70;17.40;;;;;;5072756;28;20391;-75
2022/02/11 16:35:37;;;;;;;11.75;3.03;;;6.70;17.30;;;;;;5063779;28;20440;-75
2022/02/11 16:38:05;;;;;;;12.98;2.72;;;6.60;17.30;;;;;;5066954;28;20420;-75
2022/02/11 16:40:32;;;;;;;14.15;3.00;;;6.50;17.30;;;;;;5064393;28;20455;-75